Terminal Aerodrome Forecast
Issued by NWS

Home | Current Version | Previous Version | Text Only | Print | Product List | Glossary On
Versions: 1 2 3 4 5 6 7 8 9 10 11 12 13 14 15
787
FTUS44 KMAF 231744 AAA
TAFFST
TAF AMD
KFST 231744Z 2318/2418 15009KT P6SM FEW100 SCT250
     FM240200 10015G25KT P6SM -SHRA BKN060
     FM240900 07011KT P6SM BKN040=

USA.gov is the U.S. government's official web portal to all federal, state and local government web resources and services.